sensor_id;sensor_type;location;lat;lon;timestamp;temperature;humidity
36690;DHT22;22676;51.120;3.702;2023-04-25T00:00:18;25.10;41.30
36690;DHT22;22676;51.120;3.702;2023-04-25T00:02:43;25.00;41.50
36690;DHT22;22676;51.120;3.702;2023-04-25T00:05:09;25.00;41.40
36690;DHT22;22676;51.120;3.702;2023-04-25T00:07:34;25.00;41.50
36690;DHT22;22676;51.120;3.702;2023-04-25T00:10:00;25.00;41.60
36690;DHT22;22676;51.120;3.702;2023-04-25T00:12:26;25.10;41.40
36690;DHT22;22676;51.120;3.702;2023-04-25T00:14:54;25.20;41.30
36690;DHT22;22676;51.120;3.702;2023-04-25T00:17:22;25.20;41.40
36690;DHT22;22676;51.120;3.702;2023-04-25T00:19:49;25.10;41.40
36690;DHT22;22676;51.120;3.702;2023-04-25T00:22:15;25.10;41.50
36690;DHT22;22676;51.120;3.702;2023-04-25T00:24:41;25.10;41.40
36690;DHT22;22676;51.120;3.702;2023-04-25T00:27:06;25.10;41.30
36690;DHT22;22676;51.120;3.702;2023-04-25T00:29:32;25.20;41.30
36690;DHT22;22676;51.120;3.702;2023-04-25T00:31:58;25.10;41.40
36690;DHT22;22676;51.120;3.702;2023-04-25T00:34:23;25.10;41.40
36690;DHT22;22676;51.120;3.702;2023-04-25T00:36:49;25.10;41.30
36690;DHT22;22676;51.120;3.702;2023-04-25T00:39:14;25.10;41.40
36690;DHT22;22676;51.120;3.702;2023-04-25T00:41:40;25.10;41.40
36690;DHT22;22676;51.120;3.702;2023-04-25T00:44:05;25.10;40.90
36690;DHT22;22676;51.120;3.702;2023-04-25T00:46:32;25.10;40.70
36690;DHT22;22676;51.120;3.702;2023-04-25T00:48:58;25.10;40.60
36690;DHT22;22676;51.120;3.702;2023-04-25T00:51:23;25.00;40.70
36690;DHT22;22676;51.120;3.702;2023-04-25T00:53:50;24.90;41.00
36690;DHT22;22676;51.120;3.702;2023-04-25T00:56:16;25.00;41.10
36690;DHT22;22676;51.120;3.702;2023-04-25T00:58:41;25.00;41.10
36690;DHT22;22676;51.120;3.702;2023-04-25T01:01:08;25.00;41.10
36690;DHT22;22676;51.120;3.702;2023-04-25T01:03:34;25.10;41.10
36690;DHT22;22676;51.120;3.702;2023-04-25T01:06:08;25.00;41.10
36690;DHT22;22676;51.120;3.702;2023-04-25T01:08:34;25.00;41.20
36690;DHT22;22676;51.120;3.702;2023-04-25T01:11:00;25.00;41.30
36690;DHT22;22676;51.120;3.702;2023-04-25T01:13:26;24.90;41.40
36690;DHT22;22676;51.120;3.702;2023-04-25T01:15:52;24.90;41.40
36690;DHT22;22676;51.120;3.702;2023-04-25T01:18:18;24.90;41.40
36690;DHT22;22676;51.120;3.702;2023-04-25T01:20:43;24.90;41.40
36690;DHT22;22676;51.120;3.702;2023-04-25T01:23:09;24.80;41.40
36690;DHT22;22676;51.120;3.702;2023-04-25T01:25:35;24.80;41.40
36690;DHT22;22676;51.120;3.702;2023-04-25T01:28:01;24.90;41.40
36690;DHT22;22676;51.120;3.702;2023-04-25T01:30:26;24.90;41.30
36690;DHT22;22676;51.120;3.702;2023-04-25T01:32:54;24.90;41.30
36690;DHT22;22676;51.120;3.702;2023-04-25T01:35:20;24.90;41.20
36690;DHT22;22676;51.120;3.702;2023-04-25T01:37:45;24.90;41.20
36690;DHT22;22676;51.120;3.702;2023-04-25T01:40:12;24.90;41.10
36690;DHT22;22676;51.120;3.702;2023-04-25T01:42:38;24.90;41.20
36690;DHT22;22676;51.120;3.702;2023-04-25T01:45:04;24.90;40.60
36690;DHT22;22676;51.120;3.702;2023-04-25T01:47:30;24.90;40.00
36690;DHT22;22676;51.120;3.702;2023-04-25T01:49:56;24.80;40.20
36690;DHT22;22676;51.120;3.702;2023-04-25T01:52:22;24.80;40.70
36690;DHT22;22676;51.120;3.702;2023-04-25T01:54:47;24.60;41.00
36690;DHT22;22676;51.120;3.702;2023-04-25T01:57:13;24.70;41.10
36690;DHT22;22676;51.120;3.702;2023-04-25T01:59:39;24.70;41.00
36690;DHT22;22676;51.120;3.702;2023-04-25T02:02:05;24.70;41.00
36690;DHT22;22676;51.120;3.702;2023-04-25T02:04:30;24.70;41.10
36690;DHT22;22676;51.120;3.702;2023-04-25T02:06:56;24.70;41.00
36690;DHT22;22676;51.120;3.702;2023-04-25T02:09:21;24.70;41.10
36690;DHT22;22676;51.120;3.702;2023-04-25T02:11:47;24.80;41.00
36690;DHT22;22676;51.120;3.702;2023-04-25T02:14:12;24.70;41.00
36690;DHT22;22676;51.120;3.702;2023-04-25T02:16:38;24.70;41.20
36690;DHT22;22676;51.120;3.702;2023-04-25T02:19:04;24.70;41.20
36690;DHT22;22676;51.120;3.702;2023-04-25T02:21:30;24.70;41.10
36690;DHT22;22676;51.120;3.702;2023-04-25T02:23:56;24.70;41.10
36690;DHT22;22676;51.120;3.702;2023-04-25T02:26:21;24.70;41.10
36690;DHT22;22676;51.120;3.702;2023-04-25T02:28:49;24.70;41.10
36690;DHT22;22676;51.120;3.702;2023-04-25T02:31:14;24.70;41.20
36690;DHT22;22676;51.120;3.702;2023-04-25T02:33:40;24.70;41.10
36690;DHT22;22676;51.120;3.702;2023-04-25T02:36:06;24.70;41.20
36690;DHT22;22676;51.120;3.702;2023-04-25T02:38:31;24.70;41.30
36690;DHT22;22676;51.120;3.702;2023-04-25T02:40:57;24.70;41.20
36690;DHT22;22676;51.120;3.702;2023-04-25T02:43:22;24.70;40.70
36690;DHT22;22676;51.120;3.702;2023-04-25T02:45:48;24.70;40.30
36690;DHT22;22676;51.120;3.702;2023-04-25T02:48:13;24.60;39.50
36690;DHT22;22676;51.120;3.702;2023-04-25T02:50:42;24.50;40.10
36690;DHT22;22676;51.120;3.702;2023-04-25T02:53:07;24.50;40.70
36690;DHT22;22676;51.120;3.702;2023-04-25T02:55:33;24.40;40.90
36690;DHT22;22676;51.120;3.702;2023-04-25T02:57:58;24.40;41.10
36690;DHT22;22676;51.120;3.702;2023-04-25T03:00:24;24.40;41.10
36690;DHT22;22676;51.120;3.702;2023-04-25T03:02:50;24.40;41.10
36690;DHT22;22676;51.120;3.702;2023-04-25T03:05:16;24.30;41.20
36690;DHT22;22676;51.120;3.702;2023-04-25T03:07:42;24.40;41.20
36690;DHT22;22676;51.120;3.702;2023-04-25T03:10:09;24.20;41.30
36690;DHT22;22676;51.120;3.702;2023-04-25T03:12:34;24.30;41.30
36690;DHT22;22676;51.120;3.702;2023-04-25T03:15:00;24.20;41.30
36690;DHT22;22676;51.120;3.702;2023-04-25T03:17:26;24.10;41.40
36690;DHT22;22676;51.120;3.702;2023-04-25T03:19:51;24.10;41.40
36690;DHT22;22676;51.120;3.702;2023-04-25T03:22:17;24.10;41.20
36690;DHT22;22676;51.120;3.702;2023-04-25T03:24:42;24.00;41.50
36690;DHT22;22676;51.120;3.702;2023-04-25T03:27:08;24.00;41.70
36690;DHT22;22676;51.120;3.702;2023-04-25T03:29:33;23.90;41.70
36690;DHT22;22676;51.120;3.702;2023-04-25T03:31:59;23.80;41.80
36690;DHT22;22676;51.120;3.702;2023-04-25T03:34:24;23.80;42.00
36690;DHT22;22676;51.120;3.702;2023-04-25T03:36:51;23.80;42.00
36690;DHT22;22676;51.120;3.702;2023-04-25T03:39:16;23.70;42.00
36690;DHT22;22676;51.120;3.702;2023-04-25T03:41:42;23.70;42.10
36690;DHT22;22676;51.120;3.702;2023-04-25T03:44:07;23.80;41.90
36690;DHT22;22676;51.120;3.702;2023-04-25T03:46:33;23.70;41.20
36690;DHT22;22676;51.120;3.702;2023-04-25T03:48:59;23.70;40.30
36690;DHT22;22676;51.120;3.702;2023-04-25T03:51:24;23.60;40.90
36690;DHT22;22676;51.120;3.702;2023-04-25T03:53:51;23.60;41.60
36690;DHT22;22676;51.120;3.702;2023-04-25T03:56:17;23.50;42.00
36690;DHT22;22676;51.120;3.702;2023-04-25T03:58:42;23.40;42.20
36690;DHT22;22676;51.120;3.702;2023-04-25T04:01:08;23.50;42.20
36690;DHT22;22676;51.120;3.702;2023-04-25T04:03:34;23.40;42.30
36690;DHT22;22676;51.120;3.702;2023-04-25T04:06:01;23.40;42.30
36690;DHT22;22676;51.120;3.702;2023-04-25T04:08:27;23.40;42.40
36690;DHT22;22676;51.120;3.702;2023-04-25T04:10:52;23.30;42.40
36690;DHT22;22676;51.120;3.702;2023-04-25T04:13:18;23.10;42.80
36690;DHT22;22676;51.120;3.702;2023-04-25T04:15:43;23.00;43.10
36690;DHT22;22676;51.120;3.702;2023-04-25T04:18:09;23.10;43.10
36690;DHT22;22676;51.120;3.702;2023-04-25T04:20:35;23.10;43.10
36690;DHT22;22676;51.120;3.702;2023-04-25T04:23:00;23.10;42.80
36690;DHT22;22676;51.120;3.702;2023-04-25T04:25:26;23.30;42.60
36690;DHT22;22676;51.120;3.702;2023-04-25T04:27:52;23.40;42.40
36690;DHT22;22676;51.120;3.702;2023-04-25T04:30:21;23.50;42.30
36690;DHT22;22676;51.120;3.702;2023-04-25T04:32:46;23.50;42.20
36690;DHT22;22676;51.120;3.702;2023-04-25T04:35:13;23.70;42.00
36690;DHT22;22676;51.120;3.702;2023-04-25T04:37:39;23.70;41.80
36690;DHT22;22676;51.120;3.702;2023-04-25T04:40:05;23.80;41.50
36690;DHT22;22676;51.120;3.702;2023-04-25T04:42:31;23.90;41.40
36690;DHT22;22676;51.120;3.702;2023-04-25T04:44:57;24.10;39.90
36690;DHT22;22676;51.120;3.702;2023-04-25T04:47:24;24.10;39.10
36690;DHT22;22676;51.120;3.702;2023-04-25T04:49:50;24.10;40.30
36690;DHT22;22676;51.120;3.702;2023-04-25T04:52:16;24.10;41.00
36690;DHT22;22676;51.120;3.702;2023-04-25T04:54:42;24.20;41.30
36690;DHT22;22676;51.120;3.702;2023-04-25T04:57:07;24.20;41.40
36690;DHT22;22676;51.120;3.702;2023-04-25T04:59:33;24.30;41.30
36690;DHT22;22676;51.120;3.702;2023-04-25T05:01:58;24.30;41.50
36690;DHT22;22676;51.120;3.702;2023-04-25T05:04:24;24.30;41.50
36690;DHT22;22676;51.120;3.702;2023-04-25T05:06:49;24.40;41.40
36690;DHT22;22676;51.120;3.702;2023-04-25T05:09:15;24.40;41.40
36690;DHT22;22676;51.120;3.702;2023-04-25T05:11:40;24.40;41.40
36690;DHT22;22676;51.120;3.702;2023-04-25T05:14:06;24.40;41.50
36690;DHT22;22676;51.120;3.702;2023-04-25T05:16:31;24.50;41.30
36690;DHT22;22676;51.120;3.702;2023-04-25T05:18:57;24.50;42.00
36690;DHT22;22676;51.120;3.702;2023-04-25T05:21:22;24.50;41.40
36690;DHT22;22676;51.120;3.702;2023-04-25T05:23:48;24.50;41.30
36690;DHT22;22676;51.120;3.702;2023-04-25T05:26:13;24.60;41.00
36690;DHT22;22676;51.120;3.702;2023-04-25T05:28:39;24.50;40.60
36690;DHT22;22676;51.120;3.702;2023-04-25T05:31:06;24.40;40.20
36690;DHT22;22676;51.120;3.702;2023-04-25T05:33:32;24.50;40.90
36690;DHT22;22676;51.120;3.702;2023-04-25T05:35:57;24.60;41.00
36690;DHT22;22676;51.120;3.702;2023-04-25T05:38:23;24.70;40.70
36690;DHT22;22676;51.120;3.702;2023-04-25T05:40:48;24.80;40.70
36690;DHT22;22676;51.120;3.702;2023-04-25T05:43:14;24.80;40.30
36690;DHT22;22676;51.120;3.702;2023-04-25T05:45:39;24.80;38.60
36690;DHT22;22676;51.120;3.702;2023-04-25T05:48:05;24.80;38.40
36690;DHT22;22676;51.120;3.702;2023-04-25T05:50:30;24.80;39.70
36690;DHT22;22676;51.120;3.702;2023-04-25T05:52:56;25.00;40.20
36690;DHT22;22676;51.120;3.702;2023-04-25T05:55:21;25.00;40.10
36690;DHT22;22676;51.120;3.702;2023-04-25T05:57:47;25.00;40.10
36690;DHT22;22676;51.120;3.702;2023-04-25T06:00:13;25.10;39.90
36690;DHT22;22676;51.120;3.702;2023-04-25T06:02:40;25.10;39.30
36690;DHT22;22676;51.120;3.702;2023-04-25T06:05:06;25.10;39.30
36690;DHT22;22676;51.120;3.702;2023-04-25T06:07:31;25.10;39.20
36690;DHT22;22676;51.120;3.702;2023-04-25T06:09:57;25.10;38.90
36690;DHT22;22676;51.120;3.702;2023-04-25T06:12:22;25.10;39.50
36690;DHT22;22676;51.120;3.702;2023-04-25T06:14:48;25.00;38.80
36690;DHT22;22676;51.120;3.702;2023-04-25T06:17:13;25.10;38.70
36690;DHT22;22676;51.120;3.702;2023-04-25T06:19:39;25.00;39.20
36690;DHT22;22676;51.120;3.702;2023-04-25T06:22:05;25.00;38.90
36690;DHT22;22676;51.120;3.702;2023-04-25T06:24:31;24.90;38.90
36690;DHT22;22676;51.120;3.702;2023-04-25T06:26:57;24.70;38.80
36690;DHT22;22676;51.120;3.702;2023-04-25T06:29:22;24.70;39.20
36690;DHT22;22676;51.120;3.702;2023-04-25T06:31:48;24.50;39.10
36690;DHT22;22676;51.120;3.702;2023-04-25T06:34:14;24.40;39.40
36690;DHT22;22676;51.120;3.702;2023-04-25T06:36:40;24.40;39.50
36690;DHT22;22676;51.120;3.702;2023-04-25T06:39:06;24.20;39.50
36690;DHT22;22676;51.120;3.702;2023-04-25T06:41:33;24.20;39.90
36690;DHT22;22676;51.120;3.702;2023-04-25T06:43:58;24.20;39.60
36690;DHT22;22676;51.120;3.702;2023-04-25T06:46:24;24.20;39.50
36690;DHT22;22676;51.120;3.702;2023-04-25T06:48:49;24.20;39.50
36690;DHT22;22676;51.120;3.702;2023-04-25T06:51:15;24.00;39.90
36690;DHT22;22676;51.120;3.702;2023-04-25T06:53:40;24.00;40.50
36690;DHT22;22676;51.120;3.702;2023-04-25T06:56:06;23.90;40.60
36690;DHT22;22676;51.120;3.702;2023-04-25T06:58:31;23.80;40.70
36690;DHT22;22676;51.120;3.702;2023-04-25T07:00:57;23.80;40.90
36690;DHT22;22676;51.120;3.702;2023-04-25T07:03:23;23.80;41.00
36690;DHT22;22676;51.120;3.702;2023-04-25T07:05:49;23.90;40.80
36690;DHT22;22676;51.120;3.702;2023-04-25T07:08:15;23.90;41.10
36690;DHT22;22676;51.120;3.702;2023-04-25T07:10:40;23.90;41.00
36690;DHT22;22676;51.120;3.702;2023-04-25T07:13:06;23.90;41.10
36690;DHT22;22676;51.120;3.702;2023-04-25T07:15:31;24.00;40.70
36690;DHT22;22676;51.120;3.702;2023-04-25T07:17:57;23.90;41.00
36690;DHT22;22676;51.120;3.702;2023-04-25T07:20:22;23.90;41.00
36690;DHT22;22676;51.120;3.702;2023-04-25T07:22:48;23.90;41.00
36690;DHT22;22676;51.120;3.702;2023-04-25T07:25:15;23.90;40.90
36690;DHT22;22676;51.120;3.702;2023-04-25T07:27:40;23.90;40.70
36690;DHT22;22676;51.120;3.702;2023-04-25T07:30:06;23.80;40.90
36690;DHT22;22676;51.120;3.702;2023-04-25T07:32:32;23.80;40.80
36690;DHT22;22676;51.120;3.702;2023-04-25T07:34:58;23.90;40.80
36690;DHT22;22676;51.120;3.702;2023-04-25T07:37:23;23.90;40.70
36690;DHT22;22676;51.120;3.702;2023-04-25T07:39:49;24.00;40.60
36690;DHT22;22676;51.120;3.702;2023-04-25T07:42:14;23.90;40.60
36690;DHT22;22676;51.120;3.702;2023-04-25T07:44:40;23.90;40.30
36690;DHT22;22676;51.120;3.702;2023-04-25T07:47:06;24.00;40.00
36690;DHT22;22676;51.120;3.702;2023-04-25T07:49:35;24.10;39.90
36690;DHT22;22676;51.120;3.702;2023-04-25T07:52:01;23.90;40.20
36690;DHT22;22676;51.120;3.702;2023-04-25T07:54:27;23.90;40.20
36690;DHT22;22676;51.120;3.702;2023-04-25T07:56:52;23.90;40.20
36690;DHT22;22676;51.120;3.702;2023-04-25T07:59:18;23.80;40.50
36690;DHT22;22676;51.120;3.702;2023-04-25T08:01:43;24.00;40.20
36690;DHT22;22676;51.120;3.702;2023-04-25T08:04:09;24.10;40.00
36690;DHT22;22676;51.120;3.702;2023-04-25T08:06:34;24.00;40.10
36690;DHT22;22676;51.120;3.702;2023-04-25T08:09:00;23.90;40.30
36690;DHT22;22676;51.120;3.702;2023-04-25T08:11:25;24.10;40.40
36690;DHT22;22676;51.120;3.702;2023-04-25T08:13:51;24.00;40.20
36690;DHT22;22676;51.120;3.702;2023-04-25T08:16:16;24.00;40.20
36690;DHT22;22676;51.120;3.702;2023-04-25T08:18:42;24.00;40.20
36690;DHT22;22676;51.120;3.702;2023-04-25T08:21:07;24.00;40.50
36690;DHT22;22676;51.120;3.702;2023-04-25T08:23:36;24.00;40.20
36690;DHT22;22676;51.120;3.702;2023-04-25T08:26:02;24.00;40.20
36690;DHT22;22676;51.120;3.702;2023-04-25T08:28:28;23.80;40.30
36690;DHT22;22676;51.120;3.702;2023-04-25T08:30:53;23.90;40.30
36690;DHT22;22676;51.120;3.702;2023-04-25T08:33:19;23.90;39.90
36690;DHT22;22676;51.120;3.702;2023-04-25T08:35:45;23.90;40.00
36690;DHT22;22676;51.120;3.702;2023-04-25T08:38:10;23.80;40.20
36690;DHT22;22676;51.120;3.702;2023-04-25T08:40:37;23.80;40.20
36690;DHT22;22676;51.120;3.702;2023-04-25T08:43:03;23.90;40.10
36690;DHT22;22676;51.120;3.702;2023-04-25T08:45:29;24.00;39.50
36690;DHT22;22676;51.120;3.702;2023-04-25T08:47:56;24.00;39.30
36690;DHT22;22676;51.120;3.702;2023-04-25T08:50:22;24.00;39.40
36690;DHT22;22676;51.120;3.702;2023-04-25T08:52:48;23.90;39.60
36690;DHT22;22676;51.120;3.702;2023-04-25T08:55:17;24.00;39.70
36690;DHT22;22676;51.120;3.702;2023-04-25T08:57:43;24.00;39.60
36690;DHT22;22676;51.120;3.702;2023-04-25T09:00:10;23.80;39.40
36690;DHT22;22676;51.120;3.702;2023-04-25T09:02:38;24.00;39.50
36690;DHT22;22676;51.120;3.702;2023-04-25T09:05:04;23.90;39.80
36690;DHT22;22676;51.120;3.702;2023-04-25T09:07:31;23.80;39.80
36690;DHT22;22676;51.120;3.702;2023-04-25T09:09:57;23.80;39.90
36690;DHT22;22676;51.120;3.702;2023-04-25T09:12:24;23.90;40.00
36690;DHT22;22676;51.120;3.702;2023-04-25T09:15:01;23.90;39.60
36690;DHT22;22676;51.120;3.702;2023-04-25T09:17:26;24.10;39.70
36690;DHT22;22676;51.120;3.702;2023-04-25T09:19:53;24.10;39.60
36690;DHT22;22676;51.120;3.702;2023-04-25T09:22:19;24.20;39.10
36690;DHT22;22676;51.120;3.702;2023-04-25T09:24:47;24.00;39.50
36690;DHT22;22676;51.120;3.702;2023-04-25T09:27:19;24.00;39.40
36690;DHT22;22676;51.120;3.702;2023-04-25T09:29:45;24.10;39.30
36690;DHT22;22676;51.120;3.702;2023-04-25T09:34:41;23.90;39.40
36690;DHT22;22676;51.120;3.702;2023-04-25T09:37:10;24.00;39.70
36690;DHT22;22676;51.120;3.702;2023-04-25T09:39:36;24.10;39.30
36690;DHT22;22676;51.120;3.702;2023-04-25T09:42:02;24.00;39.90
36690;DHT22;22676;51.120;3.702;2023-04-25T09:44:28;24.10;39.70
36690;DHT22;22676;51.120;3.702;2023-04-25T09:46:53;24.20;39.30
36690;DHT22;22676;51.120;3.702;2023-04-25T09:49:19;24.10;39.10
36690;DHT22;22676;51.120;3.702;2023-04-25T09:51:57;23.90;39.30
36690;DHT22;22676;51.120;3.702;2023-04-25T09:54:26;23.90;39.50
36690;DHT22;22676;51.120;3.702;2023-04-25T09:56:52;24.00;39.50
36690;DHT22;22676;51.120;3.702;2023-04-25T09:59:21;24.20;39.50
36690;DHT22;22676;51.120;3.702;2023-04-25T10:01:48;24.10;39.80
36690;DHT22;22676;51.120;3.702;2023-04-25T10:04:15;24.10;39.90
36690;DHT22;22676;51.120;3.702;2023-04-25T10:06:42;24.10;39.80
36690;DHT22;22676;51.120;3.702;2023-04-25T10:09:08;24.00;39.90
36690;DHT22;22676;51.120;3.702;2023-04-25T10:11:34;24.00;40.00
36690;DHT22;22676;51.120;3.702;2023-04-25T10:14:00;23.90;39.80
36690;DHT22;22676;51.120;3.702;2023-04-25T10:16:26;24.10;39.90
36690;DHT22;22676;51.120;3.702;2023-04-25T10:18:53;24.10;39.50
36690;DHT22;22676;51.120;3.702;2023-04-25T10:21:18;24.10;39.50
36690;DHT22;22676;51.120;3.702;2023-04-25T10:23:46;24.20;39.50
36690;DHT22;22676;51.120;3.702;2023-04-25T10:26:12;24.00;39.70
36690;DHT22;22676;51.120;3.702;2023-04-25T10:28:57;24.00;39.70
36690;DHT22;22676;51.120;3.702;2023-04-25T10:31:23;24.00;39.70
36690;DHT22;22676;51.120;3.702;2023-04-25T10:33:48;24.00;40.00
36690;DHT22;22676;51.120;3.702;2023-04-25T10:36:15;24.10;40.00
36690;DHT22;22676;51.120;3.702;2023-04-25T10:38:43;24.20;39.70
36690;DHT22;22676;51.120;3.702;2023-04-25T10:41:10;24.30;39.70
36690;DHT22;22676;51.120;3.702;2023-04-25T10:44:09;24.40;39.40
36690;DHT22;22676;51.120;3.702;2023-04-25T10:46:28;24.40;38.90
36690;DHT22;22676;51.120;3.702;2023-04-25T10:48:58;24.30;38.90
36690;DHT22;22676;51.120;3.702;2023-04-25T10:51:25;24.00;39.20
36690;DHT22;22676;51.120;3.702;2023-04-25T10:59:08;24.20;39.60
36690;DHT22;22676;51.120;3.702;2023-04-25T11:01:42;24.20;39.70
36690;DHT22;22676;51.120;3.702;2023-04-25T11:04:19;24.20;39.70
36690;DHT22;22676;51.120;3.702;2023-04-25T11:09:23;24.10;39.80
36690;DHT22;22676;51.120;3.702;2023-04-25T11:11:53;24.00;40.20
36690;DHT22;22676;51.120;3.702;2023-04-25T11:14:19;24.00;40.50
36690;DHT22;22676;51.120;3.702;2023-04-25T11:16:45;24.20;40.10
36690;DHT22;22676;51.120;3.702;2023-04-25T11:19:11;24.30;39.90
36690;DHT22;22676;51.120;3.702;2023-04-25T11:21:36;24.40;39.50
36690;DHT22;22676;51.120;3.702;2023-04-25T11:24:02;24.50;39.00
36690;DHT22;22676;51.120;3.702;2023-04-25T11:26:27;24.60;39.10
36690;DHT22;22676;51.120;3.702;2023-04-25T11:28:56;24.70;38.70
36690;DHT22;22676;51.120;3.702;2023-04-25T11:31:22;24.70;38.70
36690;DHT22;22676;51.120;3.702;2023-04-25T11:33:49;24.80;38.90
36690;DHT22;22676;51.120;3.702;2023-04-25T11:36:15;24.90;38.80
36690;DHT22;22676;51.120;3.702;2023-04-25T11:38:40;25.00;38.90
36690;DHT22;22676;51.120;3.702;2023-04-25T11:41:06;25.10;39.10
36690;DHT22;22676;51.120;3.702;2023-04-25T11:43:32;25.20;38.60
36690;DHT22;22676;51.120;3.702;2023-04-25T11:45:57;25.00;37.60
36690;DHT22;22676;51.120;3.702;2023-04-25T11:48:23;25.00;37.30
36690;DHT22;22676;51.120;3.702;2023-04-25T11:50:49;25.10;38.00
36690;DHT22;22676;51.120;3.702;2023-04-25T11:53:15;25.10;38.20
36690;DHT22;22676;51.120;3.702;2023-04-25T11:55:42;25.20;38.50
36690;DHT22;22676;51.120;3.702;2023-04-25T11:58:08;25.30;38.90
36690;DHT22;22676;51.120;3.702;2023-04-25T12:00:34;25.40;38.60
36690;DHT22;22676;51.120;3.702;2023-04-25T12:02:59;25.40;38.50
36690;DHT22;22676;51.120;3.702;2023-04-25T12:05:26;25.50;38.20
36690;DHT22;22676;51.120;3.702;2023-04-25T12:07:52;25.50;37.60
36690;DHT22;22676;51.120;3.702;2023-04-25T12:10:18;25.60;38.00
36690;DHT22;22676;51.120;3.702;2023-04-25T12:12:46;25.60;38.30
36690;DHT22;22676;51.120;3.702;2023-04-25T12:17:39;25.60;37.60
36690;DHT22;22676;51.120;3.702;2023-04-25T12:20:06;25.70;37.30
36690;DHT22;22676;51.120;3.702;2023-04-25T12:22:32;25.80;37.30
36690;DHT22;22676;51.120;3.702;2023-04-25T12:24:58;25.70;36.90
36690;DHT22;22676;51.120;3.702;2023-04-25T12:27:23;25.80;37.50
36690;DHT22;22676;51.120;3.702;2023-04-25T12:29:51;25.80;37.50
36690;DHT22;22676;51.120;3.702;2023-04-25T12:32:17;25.60;37.70
36690;DHT22;22676;51.120;3.702;2023-04-25T12:34:44;25.40;37.70
36690;DHT22;22676;51.120;3.702;2023-04-25T12:37:10;25.40;38.00
36690;DHT22;22676;51.120;3.702;2023-04-25T12:39:35;25.40;38.20
36690;DHT22;22676;51.120;3.702;2023-04-25T12:42:01;25.30;38.00
36690;DHT22;22676;51.120;3.702;2023-04-25T12:44:27;25.20;38.20
36690;DHT22;22676;51.120;3.702;2023-04-25T12:46:53;25.20;37.50
36690;DHT22;22676;51.120;3.702;2023-04-25T12:49:19;25.10;37.60
36690;DHT22;22676;51.120;3.702;2023-04-25T12:51:45;25.00;37.70
36690;DHT22;22676;51.120;3.702;2023-04-25T12:54:10;25.10;37.90
36690;DHT22;22676;51.120;3.702;2023-04-25T12:56:36;25.00;38.00
36690;DHT22;22676;51.120;3.702;2023-04-25T12:59:02;25.00;38.20
36690;DHT22;22676;51.120;3.702;2023-04-25T13:01:30;25.00;38.20
36690;DHT22;22676;51.120;3.702;2023-04-25T13:03:56;25.00;38.40
36690;DHT22;22676;51.120;3.702;2023-04-25T13:06:21;25.00;38.60
36690;DHT22;22676;51.120;3.702;2023-04-25T13:08:47;25.20;38.40
36690;DHT22;22676;51.120;3.702;2023-04-25T13:11:13;25.10;38.40
36690;DHT22;22676;51.120;3.702;2023-04-25T13:13:40;25.00;38.70
36690;DHT22;22676;51.120;3.702;2023-04-25T13:16:06;25.00;38.20
36690;DHT22;22676;51.120;3.702;2023-04-25T13:18:32;25.00;38.00
36690;DHT22;22676;51.120;3.702;2023-04-25T13:20:58;25.20;37.80
36690;DHT22;22676;51.120;3.702;2023-04-25T13:23:25;25.10;37.80
36690;DHT22;22676;51.120;3.702;2023-04-25T13:25:51;25.10;38.20
36690;DHT22;22676;51.120;3.702;2023-04-25T13:28:16;25.00;38.40
36690;DHT22;22676;51.120;3.702;2023-04-25T13:30:42;25.10;38.40
36690;DHT22;22676;51.120;3.702;2023-04-25T13:33:08;25.30;37.80
36690;DHT22;22676;51.120;3.702;2023-04-25T13:35:34;25.40;37.70
36690;DHT22;22676;51.120;3.702;2023-04-25T13:38:00;25.40;37.80
36690;DHT22;22676;51.120;3.702;2023-04-25T13:40:26;25.10;37.90
36690;DHT22;22676;51.120;3.702;2023-04-25T13:42:52;24.90;38.20
36690;DHT22;22676;51.120;3.702;2023-04-25T13:45:18;25.00;37.90
36690;DHT22;22676;51.120;3.702;2023-04-25T13:47:43;25.00;37.70
36690;DHT22;22676;51.120;3.702;2023-04-25T13:50:09;25.00;37.60
36690;DHT22;22676;51.120;3.702;2023-04-25T13:52:35;24.90;38.20
36690;DHT22;22676;51.120;3.702;2023-04-25T13:55:01;24.90;37.80
36690;DHT22;22676;51.120;3.702;2023-04-25T13:57:28;24.70;38.20
36690;DHT22;22676;51.120;3.702;2023-04-25T13:59:55;24.80;38.70
36690;DHT22;22676;51.120;3.702;2023-04-25T14:02:21;24.90;38.30
36690;DHT22;22676;51.120;3.702;2023-04-25T14:04:46;25.20;37.60
36690;DHT22;22676;51.120;3.702;2023-04-25T14:07:12;25.20;37.50
36690;DHT22;22676;51.120;3.702;2023-04-25T14:09:41;25.30;37.30
36690;DHT22;22676;51.120;3.702;2023-04-25T14:12:07;25.30;37.10
36690;DHT22;22676;51.120;3.702;2023-04-25T14:14:34;25.40;36.90
36690;DHT22;22676;51.120;3.702;2023-04-25T14:17:00;25.20;37.30
36690;DHT22;22676;51.120;3.702;2023-04-25T14:19:26;25.20;37.20
36690;DHT22;22676;51.120;3.702;2023-04-25T14:22:03;24.90;37.40
36690;DHT22;22676;51.120;3.702;2023-04-25T14:24:29;24.70;37.40
36690;DHT22;22676;51.120;3.702;2023-04-25T14:26:55;24.70;37.80
36690;DHT22;22676;51.120;3.702;2023-04-25T14:29:20;24.70;37.70
36690;DHT22;22676;51.120;3.702;2023-04-25T14:31:46;24.50;37.90
36690;DHT22;22676;51.120;3.702;2023-04-25T14:34:12;24.60;37.90
36690;DHT22;22676;51.120;3.702;2023-04-25T14:36:37;24.60;38.00
36690;DHT22;22676;51.120;3.702;2023-04-25T14:39:04;24.50;38.10
36690;DHT22;22676;51.120;3.702;2023-04-25T14:41:32;24.50;38.10
36690;DHT22;22676;51.120;3.702;2023-04-25T14:43:58;24.50;38.00
36690;DHT22;22676;51.120;3.702;2023-04-25T14:46:23;24.60;37.70
36690;DHT22;22676;51.120;3.702;2023-04-25T14:48:49;24.70;37.50
36690;DHT22;22676;51.120;3.702;2023-04-25T14:51:15;24.70;37.30
36690;DHT22;22676;51.120;3.702;2023-04-25T14:53:41;24.60;37.50
36690;DHT22;22676;51.120;3.702;2023-04-25T14:56:06;24.60;37.90
36690;DHT22;22676;51.120;3.702;2023-04-25T14:58:32;24.50;37.70
36690;DHT22;22676;51.120;3.702;2023-04-25T15:00:58;24.40;38.10
36690;DHT22;22676;51.120;3.702;2023-04-25T15:03:24;24.50;38.00
36690;DHT22;22676;51.120;3.702;2023-04-25T15:05:50;24.50;38.10
36690;DHT22;22676;51.120;3.702;2023-04-25T15:08:15;24.40;38.10
36690;DHT22;22676;51.120;3.702;2023-04-25T15:10:41;24.40;38.20
36690;DHT22;22676;51.120;3.702;2023-04-25T15:13:06;24.30;38.20
36690;DHT22;22676;51.120;3.702;2023-04-25T15:15:32;24.30;38.50
36690;DHT22;22676;51.120;3.702;2023-04-25T15:17:58;24.40;38.50
36690;DHT22;22676;51.120;3.702;2023-04-25T15:20:24;24.20;38.60
36690;DHT22;22676;51.120;3.702;2023-04-25T15:22:50;24.30;38.60
36690;DHT22;22676;51.120;3.702;2023-04-25T15:25:16;24.30;38.60
36690;DHT22;22676;51.120;3.702;2023-04-25T15:27:43;24.20;38.60
36690;DHT22;22676;51.120;3.702;2023-04-25T15:30:09;24.20;38.90
36690;DHT22;22676;51.120;3.702;2023-04-25T15:32:45;24.10;38.90
36690;DHT22;22676;51.120;3.702;2023-04-25T15:35:11;24.10;39.00